Time;durP1;ratioP1;P1;durP2;ratioP2;P2;SDS_P1;SDS_P2;PMS_P1;PMS_P2;Temp;Humidity;BMP_temperature;BMP_pressure;BME280_temperature;BME280_humidity;BME280_pressure;Samples;Min_cycle;Max_cycle;Signal;HPM_P1;HPM_P2
2023/05/30 00:01:35;;;;;;;11.57;3.00;;;8.80;79.40;;;;;;6010340;23;20735;-62
2023/05/30 00:04:02;;;;;;;14.30;4.27;;;8.80;79.60;;;;;;6010258;23;20424;-62
2023/05/30 00:06:30;;;;;;;14.63;5.17;;;8.80;79.60;;;;;;6010047;23;20951;-62
2023/05/30 00:08:57;;;;;;;11.63;5.10;;;8.70;83.30;;;;;;6010512;23;20419;-62
2023/05/30 00:11:24;;;;;;;10.03;3.30;;;8.70;85.00;;;;;;6010407;23;20485;-62
2023/05/30 00:13:51;;;;;;;9.10;3.17;;;8.70;84.60;;;;;;6010489;23;20419;-62
2023/05/30 00:16:19;;;;;;;12.93;4.13;;;8.70;85.50;;;;;;6010541;23;20896;-62
2023/05/30 00:18:46;;;;;;;11.80;3.40;;;8.60;86.50;;;;;;6010449;23;20744;-62
2023/05/30 00:21:14;;;;;;;9.60;3.27;;;8.70;86.60;;;;;;6010503;23;20419;-62
2023/05/30 00:23:45;;;;;;;15.30;4.47;;;8.70;87.00;;;;;;6010143;23;20419;-62
2023/05/30 00:26:13;;;;;;;13.03;4.70;;;8.70;87.70;;;;;;6009985;23;20433;-62
2023/05/30 00:28:40;;;;;;;9.47;3.50;;;8.60;87.50;;;;;;6010493;23;20478;-62
2023/05/30 00:31:07;;;;;;;7.67;3.57;;;8.50;86.20;;;;;;6010093;23;20427;-62
2023/05/30 00:33:34;;;;;;;13.10;4.00;;;8.40;88.60;;;;;;6010188;23;20487;-62
2023/05/30 00:36:01;;;;;;;10.90;3.87;;;8.40;87.90;;;;;;6010070;23;20418;-62
2023/05/30 00:38:28;;;;;;;15.03;4.40;;;8.40;90.50;;;;;;6009947;23;20419;-62
2023/05/30 00:40:56;;;;;;;9.30;3.40;;;8.30;90.10;;;;;;6010334;23;20753;-62
2023/05/30 00:43:23;;;;;;;13.87;3.17;;;8.50;85.50;;;;;;6009898;23;20423;-61
2023/05/30 00:45:53;;;;;;;10.20;2.60;;;8.70;81.40;;;;;;6010233;23;20759;-62
2023/05/30 00:48:21;;;;;;;12.40;2.50;;;8.90;77.00;;;;;;6010251;23;20418;-62
2023/05/30 00:50:48;;;;;;;13.50;3.10;;;9.10;73.80;;;;;;6009115;23;20441;-62
2023/05/30 00:53:16;;;;;;;8.33;2.60;;;9.20;71.50;;;;;;6009970;23;20419;-62
2023/05/30 00:55:43;;;;;;;15.67;3.07;;;9.30;69.80;;;;;;6010280;23;20426;-62
2023/05/30 00:58:12;;;;;;;10.47;2.53;;;9.60;66.50;;;;;;6010656;23;20430;-62
2023/05/30 01:00:39;;;;;;;13.47;3.17;;;9.80;63.40;;;;;;6012242;23;20807;-62
2023/05/30 01:03:08;;;;;;;11.17;2.30;;;9.90;61.80;;;;;;6011995;23;20763;-62
2023/05/30 01:05:35;;;;;;;7.33;2.70;;;10.00;61.00;;;;;;6010993;23;20892;-62
2023/05/30 01:08:02;;;;;;;8.40;2.50;;;10.10;60.20;;;;;;6011783;23;20509;-62
2023/05/30 01:10:31;;;;;;;7.30;2.03;;;10.10;61.10;;;;;;6012146;23;20717;-62
2023/05/30 01:13:07;;;;;;;12.23;2.70;;;10.20;58.50;;;;;;6011863;23;20419;-62
2023/05/30 01:15:40;;;;;;;9.30;2.17;;;10.20;59.20;;;;;;6012096;23;20800;-62
2023/05/30 01:18:14;;;;;;;6.50;1.60;;;10.30;58.00;;;;;;6011625;23;20432;-61
2023/05/30 01:20:46;;;;;;;16.10;3.33;;;10.30;57.20;;;;;;6011653;23;20879;-62
2023/05/30 01:23:45;;;;;;;11.30;2.97;;;10.20;57.80;;;;;;6011490;23;20412;-62
2023/05/30 01:26:27;;;;;;;18.07;3.60;;;10.10;58.20;;;;;;6004199;23;20444;-62
2023/05/30 01:28:58;;;;;;;7.90;2.37;;;10.00;61.00;;;;;;6012225;23;20459;-62
2023/05/30 01:31:26;;;;;;;8.20;2.40;;;9.70;62.50;;;;;;6011408;23;20428;-62
2023/05/30 01:33:53;;;;;;;11.53;3.50;;;9.50;67.30;;;;;;6011553;23;20930;-62
2023/05/30 01:36:21;;;;;;;12.27;3.40;;;9.30;70.00;;;;;;6011840;23;20422;-62
2023/05/30 01:38:47;;;;;;;15.83;2.90;;;9.10;72.10;;;;;;6011849;23;20426;-62
2023/05/30 01:41:22;;;;;;;10.83;3.70;;;8.90;74.80;;;;;;6011740;23;20419;-62
2023/05/30 01:43:56;;;;;;;7.83;2.67;;;8.70;76.80;;;;;;6011868;23;20415;-62
2023/05/30 01:46:31;;;;;;;9.37;3.40;;;8.50;80.70;;;;;;6010595;23;20427;-62
2023/05/30 01:49:03;;;;;;;12.23;3.40;;;8.30;84.40;;;;;;6011833;23;20411;-62
2023/05/30 01:51:35;;;;;;;10.10;3.03;;;8.20;88.40;;;;;;6011643;23;20403;-62
2023/05/30 01:54:06;;;;;;;9.23;3.17;;;8.00;90.60;;;;;;6011565;23;20849;-61
2023/05/30 01:56:35;;;;;;;12.80;4.40;;;7.90;90.60;;;;;;6011309;23;20407;-62
2023/05/30 01:59:03;;;;;;;13.20;4.77;;;7.80;91.10;;;;;;6011606;23;20458;-61
2023/05/30 02:01:32;;;;;;;6.03;2.57;;;7.80;90.60;;;;;;6010875;23;20414;-61
2023/05/30 02:04:00;;;;;;;11.57;3.20;;;7.90;90.60;;;;;;6011697;23;20732;-61
2023/05/30 02:06:27;;;;;;;9.13;3.17;;;7.80;90.60;;;;;;6011378;23;20449;-61
2023/05/30 02:08:53;;;;;;;8.90;3.10;;;7.80;91.10;;;;;;6011494;23;20425;-61
2023/05/30 02:11:20;;;;;;;18.47;3.40;;;7.80;92.70;;;;;;6011085;23;20429;-61
2023/05/30 02:13:47;;;;;;;9.63;3.10;;;8.10;90.70;;;;;;6011617;23;20426;-61
2023/05/30 02:16:15;;;;;;;11.33;2.80;;;8.50;85.10;;;;;;6010808;23;20741;-61
2023/05/30 02:18:43;;;;;;;12.60;2.93;;;8.70;81.30;;;;;;6010966;23;20427;-69
2023/05/30 02:21:10;;;;;;;13.43;2.73;;;8.90;77.90;;;;;;6011423;23;20428;-69
2023/05/30 02:23:37;;;;;;;13.57;3.37;;;8.80;77.00;;;;;;6011288;23;20418;-69
2023/05/30 02:26:05;;;;;;;8.37;2.63;;;8.90;77.00;;;;;;6011472;23;20420;-69
2023/05/30 02:28:31;;;;;;;7.80;2.47;;;9.10;77.20;;;;;;6011297;23;20821;-69
2023/05/30 02:30:58;;;;;;;9.63;3.20;;;9.00;77.00;;;;;;6011135;23;20430;-69
2023/05/30 02:33:25;;;;;;;13.10;3.47;;;8.80;76.90;;;;;;6011207;23;20410;-69
2023/05/30 02:35:53;;;;;;;11.20;3.93;;;8.80;76.90;;;;;;6011304;23;20427;-69
2023/05/30 02:38:20;;;;;;;11.83;3.00;;;8.80;76.90;;;;;;6011197;23;20416;-69
2023/05/30 02:40:47;;;;;;;13.57;3.20;;;8.80;76.90;;;;;;6010984;23;20507;-69
2023/05/30 02:43:14;;;;;;;9.57;3.20;;;8.80;77.30;;;;;;6010761;23;20419;-69
2023/05/30 02:45:40;;;;;;;12.30;3.50;;;8.70;80.70;;;;;;6010925;23;20979;-69
2023/05/30 02:48:07;;;;;;;12.87;3.77;;;8.30;87.90;;;;;;6010977;23;20954;-69
2023/05/30 02:50:34;;;;;;;8.23;3.90;;;8.00;90.60;;;;;;6010960;23;20445;-69
2023/05/30 02:53:03;;;;;;;9.87;4.20;;;7.80;91.90;;;;;;6009559;23;20456;-69
2023/05/30 02:55:30;;;;;;;10.00;4.00;;;7.60;93.50;;;;;;6010400;23;20469;-69
2023/05/30 02:57:57;;;;;;;12.63;3.07;;;7.80;92.80;;;;;;6010898;23;20908;-69
2023/05/30 03:00:24;;;;;;;15.60;3.17;;;8.10;91.50;;;;;;6010342;23;20418;-69
2023/05/30 03:02:51;;;;;;;11.23;3.10;;;8.30;90.70;;;;;;6010469;23;20425;-69
2023/05/30 03:05:18;;;;;;;9.43;2.97;;;8.50;86.90;;;;;;6011054;23;20422;-69
2023/05/30 03:07:45;;;;;;;18.27;2.73;;;8.60;86.00;;;;;;6010500;23;20948;-69
2023/05/30 03:10:13;;;;;;;14.27;2.70;;;8.70;84.80;;;;;;6011017;23;20418;-69
2023/05/30 03:12:40;;;;;;;7.73;2.20;;;8.80;84.60;;;;;;6010484;23;20419;-69
2023/05/30 03:15:09;;;;;;;13.03;2.67;;;8.90;84.10;;;;;;6010496;23;20908;-69
2023/05/30 03:17:35;;;;;;;15.40;3.07;;;9.00;83.40;;;;;;6010530;23;20423;-69
2023/05/30 03:20:02;;;;;;;12.43;3.10;;;8.90;83.20;;;;;;6010557;23;20931;-69
2023/05/30 03:22:29;;;;;;;8.93;2.27;;;9.00;83.40;;;;;;6010685;23;20722;-69
2023/05/30 03:24:56;;;;;;;34.60;4.10;;;9.00;83.60;;;;;;6010907;23;20419;-69
2023/05/30 03:27:24;;;;;;;11.60;2.83;;;8.90;84.30;;;;;;6010662;23;20443;-69
2023/05/30 03:29:52;;;;;;;7.67;2.40;;;8.90;84.70;;;;;;6010666;23;20418;-69
2023/05/30 03:32:19;;;;;;;10.40;2.83;;;8.90;84.70;;;;;;6010861;23;20410;-69
2023/05/30 03:34:46;;;;;;;13.03;2.90;;;8.80;86.10;;;;;;6010581;23;20419;-69
2023/05/30 03:37:13;;;;;;;6.47;2.37;;;8.80;87.00;;;;;;6010129;23;20423;-69
2023/05/30 03:39:40;;;;;;;8.77;2.57;;;8.80;88.10;;;;;;6010285;23;20420;-69
2023/05/30 03:42:07;;;;;;;10.37;2.70;;;8.80;89.30;;;;;;6009406;23;20839;-69
2023/05/30 03:44:35;;;;;;;12.60;3.20;;;8.70;89.60;;;;;;6010706;23;20423;-69
2023/05/30 03:47:02;;;;;;;14.10;3.63;;;8.70;90.40;;;;;;6010591;23;20911;-69
2023/05/30 03:49:29;;;;;;;10.87;2.93;;;8.70;90.40;;;;;;6010650;23;20441;-69
2023/05/30 03:51:55;;;;;;;18.83;3.57;;;8.70;90.90;;;;;;6010489;23;20418;-69
2023/05/30 03:54:22;;;;;;;13.00;2.90;;;8.80;90.90;;;;;;6010643;23;20446;-69
2023/05/30 03:56:49;;;;;;;12.33;3.10;;;8.80;90.90;;;;;;6009358;23;20426;-69
2023/05/30 03:59:16;;;;;;;9.67;3.20;;;8.80;90.90;;;;;;6010620;23;20426;-69
2023/05/30 04:01:44;;;;;;;17.23;4.03;;;8.80;90.90;;;;;;6010096;23;20419;-69
2023/05/30 04:04:11;;;;;;;9.20;3.03;;;8.80;90.90;;;;;;6010240;23;20430;-69
2023/05/30 04:06:37;;;;;;;14.90;3.20;;;8.80;90.90;;;;;;6010105;23;20425;-69
2023/05/30 04:09:05;;;;;;;15.70;3.67;;;8.90;91.00;;;;;;6010321;23;20444;-69
2023/05/30 04:11:32;;;;;;;16.63;4.30;;;8.90;91.00;;;;;;6009660;23;20915;-69
2023/05/30 04:13:59;;;;;;;8.77;3.17;;;8.90;91.30;;;;;;6009288;23;20418;-69
2023/05/30 04:16:26;;;;;;;13.53;3.30;;;8.90;91.80;;;;;;6009178;23;20513;-69
2023/05/30 04:18:54;;;;;;;14.77;3.30;;;9.00;91.00;;;;;;6009472;23;20422;-69
2023/05/30 04:21:21;;;;;;;18.80;4.37;;;9.00;91.20;;;;;;6009710;23;20418;-69
2023/05/30 04:23:47;;;;;;;7.37;3.30;;;9.00;91.20;;;;;;6009744;23;20985;-69
2023/05/30 04:26:14;;;;;;;10.50;3.40;;;9.10;91.80;;;;;;6010255;23;20443;-69
2023/05/30 04:28:42;;;;;;;11.43;2.83;;;9.10;91.60;;;;;;6010323;23;20446;-69
2023/05/30 04:31:10;;;;;;;8.27;3.03;;;9.20;91.60;;;;;;6009346;23;20483;-69
2023/05/30 04:33:38;;;;;;;12.20;3.97;;;9.20;91.10;;;;;;6010704;23;20420;-69
2023/05/30 04:36:09;;;;;;;10.13;4.37;;;9.30;91.10;;;;;;6012249;23;20420;-69
2023/05/30 04:38:37;;;;;;;17.60;3.50;;;9.40;91.20;;;;;;6011835;23;20406;-69
2023/05/30 04:41:05;;;;;;;19.07;4.10;;;9.40;91.20;;;;;;6012673;23;20436;-69
2023/05/30 04:43:34;;;;;;;14.53;4.00;;;9.40;91.20;;;;;;6012208;23;20441;-69
2023/05/30 04:46:03;;;;;;;13.77;4.23;;;9.50;91.20;;;;;;6012124;23;20432;-69
2023/05/30 04:48:30;;;;;;;15.80;4.83;;;9.50;91.20;;;;;;6011714;23;20439;-69
2023/05/30 04:50:59;;;;;;;25.77;4.57;;;9.60;91.20;;;;;;6011731;23;20926;-69
2023/05/30 04:53:27;;;;;;;21.90;6.27;;;9.60;91.20;;;;;;6012163;23;20507;-69
2023/05/30 04:55:54;;;;;;;15.27;4.10;;;9.70;91.30;;;;;;6012123;23;20420;-69
2023/05/30 04:58:21;;;;;;;19.50;4.70;;;9.70;91.30;;;;;;6012073;23;20427;-69
2023/05/30 05:00:50;;;;;;;15.97;4.37;;;9.70;91.00;;;;;;6012065;23;20897;-69
2023/05/30 05:03:16;;;;;;;7.93;3.27;;;9.70;91.20;;;;;;6011862;23;20420;-69
2023/05/30 05:05:43;;;;;;;12.90;5.90;;;9.80;90.90;;;;;;6012072;23;20425;-69
2023/05/30 05:08:10;;;;;;;12.10;3.70;;;9.80;90.70;;;;;;6011966;23;20740;-69
2023/05/30 05:10:38;;;;;;;18.17;7.60;;;9.80;90.20;;;;;;6011681;23;20427;-69
2023/05/30 05:13:07;;;;;;;25.40;7.97;;;9.80;89.80;;;;;;6011972;23;20420;-69
2023/05/30 05:15:35;;;;;;;22.60;6.60;;;9.90;89.30;;;;;;6011604;23;20431;-63
2023/05/30 05:18:02;;;;;;;17.80;7.40;;;9.90;89.60;;;;;;6011818;23;20415;-62
2023/05/30 05:20:29;;;;;;;17.90;7.13;;;10.00;88.50;;;;;;6011739;23;20420;-62
2023/05/30 05:22:56;;;;;;;21.43;7.77;;;10.30;88.30;;;;;;6011691;23;20420;-62
2023/05/30 05:25:23;;;;;;;22.67;7.90;;;10.60;85.10;;;;;;6011895;23;20477;-62
2023/05/30 05:27:51;;;;;;;20.23;7.73;;;10.80;80.80;;;;;;6011014;23;20442;-62
2023/05/30 05:30:18;;;;;;;21.27;9.30;;;11.00;79.30;;;;;;6010610;23;20436;-63
2023/05/30 05:32:45;;;;;;;29.10;9.60;;;11.20;78.00;;;;;;6011494;23;20412;-62
2023/05/30 05:35:12;;;;;;;25.00;8.67;;;11.30;78.10;;;;;;6011452;23;21092;-62
2023/05/30 05:37:39;;;;;;;20.90;9.70;;;11.40;75.60;;;;;;6011269;23;20917;-63
2023/05/30 05:40:08;;;;;;;19.03;9.23;;;11.50;74.70;;;;;;6011805;23;20507;-62
2023/05/30 05:42:35;;;;;;;18.53;8.60;;;11.60;73.70;;;;;;6011659;23;20502;-62
2023/05/30 05:45:04;;;;;;;16.83;8.00;;;11.90;73.60;;;;;;6011275;23;20418;-62
2023/05/30 05:47:30;;;;;;;19.60;8.87;;;11.90;70.80;;;;;;6011239;23;20743;-62
2023/05/30 05:49:57;;;;;;;22.17;8.10;;;12.10;69.10;;;;;;6011399;23;20919;-62
2023/05/30 05:52:24;;;;;;;22.63;8.50;;;12.00;69.10;;;;;;6010703;23;20892;-62
2023/05/30 05:54:51;;;;;;;16.40;7.30;;;12.00;68.40;;;;;;6011173;23;20456;-62
2023/05/30 05:57:18;;;;;;;15.03;6.80;;;12.20;67.90;;;;;;6011378;23;20418;-62
2023/05/30 05:59:45;;;;;;;19.43;8.73;;;12.70;66.20;;;;;;6010754;23;20716;-62
2023/05/30 06:02:13;;;;;;;16.23;7.40;;;12.50;65.30;;;;;;6011417;23;20419;-62
2023/05/30 06:04:40;;;;;;;20.17;8.57;;;12.50;63.30;;;;;;6011177;23;20419;-62
2023/05/30 06:07:07;;;;;;;14.60;7.70;;;12.60;63.40;;;;;;6011490;23;20422;-69
2023/05/30 06:09:34;;;;;;;18.43;7.77;;;12.60;63.30;;;;;;6011077;23;20450;-69
2023/05/30 06:12:01;;;;;;;23.37;9.60;;;13.10;63.80;;;;;;6011335;23;20422;-69
2023/05/30 06:14:28;;;;;;;25.27;9.87;;;13.60;60.80;;;;;;6011370;23;20418;-69
2023/05/30 06:16:55;;;;;;;14.00;7.67;;;13.40;59.10;;;;;;6011091;23;20501;-69
2023/05/30 06:19:23;;;;;;;17.47;8.93;;;13.20;58.40;;;;;;6011510;23;20415;-69
2023/05/30 06:21:50;;;;;;;15.40;7.40;;;13.20;57.60;;;;;;6011325;23;20419;-69
2023/05/30 06:24:17;;;;;;;28.50;9.63;;;13.00;57.90;;;;;;6010926;23;20425;-69
2023/05/30 06:26:44;;;;;;;19.20;10.40;;;13.40;56.90;;;;;;6011221;23;20440;-70
2023/05/30 06:29:10;;;;;;;19.37;10.20;;;13.70;56.80;;;;;;6011200;23;20722;-69
2023/05/30 06:31:37;;;;;;;21.40;8.67;;;13.90;53.70;;;;;;6010037;23;20762;-69
2023/05/30 06:34:04;;;;;;;20.03;8.77;;;13.80;55.00;;;;;;6011479;23;20755;-67
2023/05/30 06:36:33;;;;;;;20.13;9.87;;;13.70;54.20;;;;;;6010745;23;20415;-66
2023/05/30 06:38:59;;;;;;;13.63;7.80;;;13.80;55.90;;;;;;6011141;23;20415;-69
2023/05/30 06:41:26;;;;;;;18.33;9.53;;;13.60;53.20;;;;;;6011007;23;20441;-70
2023/05/30 06:43:53;;;;;;;19.73;8.87;;;13.50;53.80;;;;;;6011313;23;20449;-69
2023/05/30 06:46:20;;;;;;;17.77;9.13;;;13.50;55.70;;;;;;6011176;23;20419;-69
2023/05/30 06:48:47;;;;;;;18.03;8.30;;;13.60;53.60;;;;;;6011068;23;20449;-68
2023/05/30 06:51:14;;;;;;;21.43;9.10;;;13.60;52.90;;;;;;6011149;23;20465;-66
2023/05/30 06:53:42;;;;;;;24.33;10.20;;;13.70;54.10;;;;;;6010873;23;20429;-69
2023/05/30 06:56:09;;;;;;;14.53;9.43;;;13.80;51.90;;;;;;6010662;23;20425;-69
2023/05/30 06:58:35;;;;;;;20.17;8.13;;;14.00;52.00;;;;;;6010754;23;20418;-69
2023/05/30 07:01:02;;;;;;;16.57;8.80;;;14.40;51.80;;;;;;6010665;23;20429;-69
2023/05/30 07:03:29;;;;;;;14.13;8.30;;;14.80;48.40;;;;;;6010558;23;20908;-70
2023/05/30 07:05:56;;;;;;;15.47;9.00;;;14.70;47.70;;;;;;6009383;23;20423;-70
2023/05/30 07:08:22;;;;;;;21.53;7.77;;;14.90;48.50;;;;;;6010037;23;20438;-70
2023/05/30 07:10:51;;;;;;;14.60;8.80;;;15.00;48.60;;;;;;6010508;23;20954;-69
2023/05/30 07:13:18;;;;;;;18.33;8.97;;;15.00;48.50;;;;;;6010771;23;20710;-70
2023/05/30 07:15:46;;;;;;;15.33;8.20;;;15.50;44.90;;;;;;6010694;23;20447;-69
2023/05/30 07:18:14;;;;;;;20.33;9.50;;;15.70;44.30;;;;;;6010470;23;20415;-69
2023/05/30 07:20:40;;;;;;;13.90;8.60;;;15.50;42.90;;;;;;6010448;23;20741;-69
2023/05/30 07:23:07;;;;;;;18.73;8.57;;;15.40;42.20;;;;;;6010033;23;20418;-69
2023/05/30 07:25:34;;;;;;;16.63;8.40;;;15.50;43.80;;;;;;6010015;23;20426;-69
2023/05/30 07:28:02;;;;;;;18.93;8.20;;;15.60;40.40;;;;;;6009473;23;20425;-69
2023/05/30 07:30:29;;;;;;;17.33;9.40;;;15.70;42.10;;;;;;6009379;23;20427;-69
2023/05/30 07:32:56;;;;;;;12.23;7.63;;;15.90;40.50;;;;;;6010557;23;20425;-69
2023/05/30 07:35:22;;;;;;;15.27;8.87;;;15.50;40.20;;;;;;6010482;23;20426;-70
2023/05/30 07:37:51;;;;;;;13.40;6.57;;;15.90;40.60;;;;;;6010213;23;20422;-70
2023/05/30 07:40:18;;;;;;;18.07;6.63;;;16.00;41.50;;;;;;6010151;23;20425;-69
2023/05/30 07:42:46;;;;;;;18.27;7.87;;;15.60;36.50;;;;;;6009726;23;20418;-69
2023/05/30 07:45:15;;;;;;;17.83;6.60;;;15.40;40.10;;;;;;6010483;23;20426;-70
2023/05/30 07:47:42;;;;;;;16.20;6.13;;;15.50;40.20;;;;;;6010440;23;20419;-69
2023/05/30 07:50:10;;;;;;;14.77;7.07;;;15.60;39.00;;;;;;6010172;23;20442;-69
2023/05/30 07:52:37;;;;;;;14.30;6.90;;;15.70;41.30;;;;;;6009561;23;20507;-69
2023/05/30 07:55:04;;;;;;;17.17;7.73;;;16.00;40.70;;;;;;6010634;23;20951;-70
2023/05/30 07:57:32;;;;;;;15.10;7.53;;;16.00;38.30;;;;;;6010559;23;20895;-70
2023/05/30 07:59:58;;;;;;;18.67;6.30;;;16.50;37.70;;;;;;6010571;23;20415;-70
2023/05/30 08:02:26;;;;;;;16.47;6.20;;;16.60;35.70;;;;;;6010540;23;20418;-70
2023/05/30 08:04:53;;;;;;;14.23;6.07;;;16.80;33.40;;;;;;6010557;23;20418;-69
2023/05/30 08:07:20;;;;;;;20.40;7.03;;;16.30;31.80;;;;;;6010370;23;20742;-69
2023/05/30 08:09:47;;;;;;;15.43;7.20;;;16.70;35.20;;;;;;6010016;23;20445;-67
2023/05/30 08:12:18;;;;;;;15.53;5.43;;;16.50;38.20;;;;;;6010398;23;21065;-63
2023/05/30 08:14:45;;;;;;;26.03;7.50;;;16.20;40.80;;;;;;6010223;23;20977;-64
2023/05/30 08:17:13;;;;;;;21.93;6.93;;;16.60;36.90;;;;;;6010085;23;20972;-64
2023/05/30 08:19:42;;;;;;;12.30;6.47;;;17.10;32.60;;;;;;6010391;23;20422;-64
2023/05/30 08:22:10;;;;;;;14.67;6.57;;;17.00;35.50;;;;;;6010251;23;20418;-64
2023/05/30 08:24:44;;;;;;;18.17;7.47;;;17.20;37.00;;;;;;6009315;23;20424;-63
2023/05/30 08:27:23;;;;;;;11.53;5.50;;;17.00;32.50;;;;;;6010544;23;20229;-63
2023/05/30 08:29:50;;;;;;;19.17;7.30;;;17.50;32.20;;;;;;6010589;23;20737;-63
2023/05/30 08:32:17;;;;;;;22.00;7.33;;;17.50;29.90;;;;;;6010478;23;20463;-70
2023/05/30 08:34:45;;;;;;;19.37;6.27;;;17.70;31.50;;;;;;6010359;23;20485;-69
2023/05/30 08:37:12;;;;;;;20.57;5.87;;;17.40;30.70;;;;;;6010502;23;20590;-70
2023/05/30 08:39:39;;;;;;;13.90;6.00;;;17.80;29.40;;;;;;6009974;23;20426;-70
2023/05/30 08:42:06;;;;;;;12.53;5.57;;;17.60;28.70;;;;;;6010260;23;20425;-70
2023/05/30 08:44:35;;;;;;;14.60;5.70;;;17.30;28.70;;;;;;6010670;23;20425;-69
2023/05/30 08:47:02;;;;;;;19.90;6.13;;;17.20;28.80;;;;;;6010348;23;20425;-70
2023/05/30 08:49:33;;;;;;;13.70;5.40;;;17.10;32.20;;;;;;6010310;23;20771;-70
2023/05/30 08:52:03;;;;;;;12.23;5.97;;;17.10;29.70;;;;;;6010227;23;20409;-70
2023/05/30 08:54:36;;;;;;;10.97;5.00;;;17.70;33.10;;;;;;6010400;23;20494;-70
2023/05/30 08:57:07;;;;;;;13.37;5.07;;;17.10;25.70;;;;;;6009928;23;20403;-69
2023/05/30 08:59:34;;;;;;;13.50;5.60;;;17.10;29.00;;;;;;6010463;23;20399;-69
2023/05/30 09:02:02;;;;;;;13.27;5.73;;;17.40;29.00;;;;;;6009845;23;20505;-70
2023/05/30 09:04:30;;;;;;;14.00;7.47;;;17.00;29.00;;;;;;6010346;23;20756;-70
2023/05/30 09:06:58;;;;;;;13.17;4.70;;;17.20;29.70;;;;;;6009904;23;20479;-70
2023/05/30 09:09:26;;;;;;;14.93;6.90;;;17.10;28.60;;;;;;6010016;23;20438;-70
2023/05/30 09:11:54;;;;;;;11.37;5.90;;;16.90;29.10;;;;;;6010528;23;20753;-69
2023/05/30 09:14:21;;;;;;;13.83;6.37;;;17.00;26.60;;;;;;6009993;23;20418;-69
2023/05/30 09:16:48;;;;;;;11.53;5.60;;;17.30;25.10;;;;;;6010147;23;20418;-70
2023/05/30 09:19:15;;;;;;;15.10;5.57;;;17.50;25.20;;;;;;6010399;23;20425;-69
2023/05/30 09:21:42;;;;;;;14.63;5.17;;;17.60;25.30;;;;;;6011918;23;20425;-69
2023/05/30 09:24:09;;;;;;;13.07;5.40;;;17.80;25.50;;;;;;6011988;23;20509;-69
2023/05/30 09:26:37;;;;;;;13.30;5.97;;;18.10;26.40;;;;;;6011801;23;20418;-70
2023/05/30 09:29:13;;;;;;;12.83;6.47;;;18.80;22.50;;;;;;6011477;23;20438;-70
2023/05/30 09:31:42;;;;;;;14.73;5.20;;;18.90;23.60;;;;;;6011466;23;20425;-69
2023/05/30 09:34:09;;;;;;;18.93;7.40;;;18.50;23.00;;;;;;6011897;23;20419;-70
2023/05/30 09:36:36;;;;;;;17.80;5.20;;;18.40;20.20;;;;;;6011347;23;20419;-69
2023/05/30 09:39:05;;;;;;;16.50;6.57;;;18.60;24.30;;;;;;6011498;23;20414;-69
2023/05/30 09:41:33;;;;;;;14.90;5.93;;;18.30;25.80;;;;;;6011739;23;20714;-69
2023/05/30 09:44:05;;;;;;;17.33;6.73;;;19.00;24.40;;;;;;6011518;23;20505;-69
2023/05/30 09:46:34;;;;;;;16.20;5.20;;;19.10;21.90;;;;;;6011803;23;20414;-69
2023/05/30 09:49:11;;;;;;;13.73;6.27;;;18.80;18.90;;;;;;6011645;23;20442;-69
2023/05/30 09:51:39;;;;;;;11.97;4.57;;;20.10;19.80;;;;;;6011591;23;20406;-69
2023/05/30 09:54:09;;;;;;;13.33;4.57;;;20.10;18.80;;;;;;6011452;23;20462;-69
2023/05/30 09:56:36;;;;;;;13.33;4.17;;;19.50;21.00;;;;;;6011686;23;20402;-67
2023/05/30 09:59:07;;;;;;;17.90;5.20;;;19.60;19.40;;;;;;6011363;23;20415;-68
2023/05/30 10:01:39;;;;;;;14.33;4.77;;;19.90;15.70;;;;;;6011076;23;20410;-68
2023/05/30 10:04:14;;;;;;;15.87;5.67;;;20.10;18.70;;;;;;6011396;23;20419;-67
2023/05/30 10:06:42;;;;;;;10.90;4.90;;;20.30;15.60;;;;;;6011454;23;20425;-67
2023/05/30 10:09:11;;;;;;;10.30;4.37;;;20.80;13.70;;;;;;6011060;23;20449;-67
2023/05/30 10:11:39;;;;;;;10.30;4.20;;;21.00;12.90;;;;;;6010865;23;20418;-67
2023/05/30 10:14:08;;;;;;;13.80;4.50;;;20.50;12.60;;;;;;6011110;23;20423;-67
2023/05/30 10:16:38;;;;;;;11.30;4.83;;;20.40;12.50;;;;;;6011142;23;20450;-66
2023/05/30 10:19:09;;;;;;;12.60;4.80;;;20.40;12.50;;;;;;6011428;23;20415;-66
2023/05/30 10:21:37;;;;;;;19.40;6.30;;;20.70;11.60;;;;;;6011310;23;20406;-66
2023/05/30 10:24:07;;;;;;;13.33;5.07;;;20.80;9.50;;;;;;6011371;23;20423;-66
2023/05/30 10:26:36;;;;;;;21.17;5.63;;;21.30;5.50;;;;;;6011082;23;20496;-67
2023/05/30 10:29:09;;;;;;;15.20;4.40;;;21.30;6.60;;;;;;6011252;23;20442;-66
2023/05/30 10:31:37;;;;;;;10.13;4.03;;;21.00;7.20;;;;;;6010227;23;20426;-70
2023/05/30 10:34:06;;;;;;;11.87;5.00;;;20.50;4.90;;;;;;6010552;23;20896;-69
2023/05/30 10:36:35;;;;;;;17.77;5.93;;;21.40;9.90;;;;;;6011145;23;20470;-69
2023/05/30 10:39:11;;;;;;;11.77;5.70;;;22.00;6.00;;;;;;6011092;23;20425;-69
2023/05/30 10:41:47;;;;;;;17.67;5.93;;;21.40;5.50;;;;;;6011228;23;20403;-69
2023/05/30 10:44:28;;;;;;;14.70;4.70;;;21.40;7.90;;;;;;6011679;23;20714;-69
2023/05/30 10:46:59;;;;;;;13.63;5.50;;;22.00;3.70;;;;;;6011125;23;20407;-69
2023/05/30 10:49:28;;;;;;;10.90;4.80;;;22.50;2.30;;;;;;6011136;23;20437;-69
2023/05/30 10:52:02;;;;;;;13.50;5.23;;;22.50;1.00;;;;;;6010723;23;20925;-68
2023/05/30 10:54:32;;;;;;;9.20;5.80;;;22.60;1.00;;;;;;6011217;23;20418;-68
2023/05/30 10:57:00;;;;;;;11.47;4.50;;;22.60;1.00;;;;;;6011227;23;20426;-68
2023/05/30 10:59:28;;;;;;;11.37;4.93;;;22.10;1.60;;;;;;6010746;23;20415;-68
2023/05/30 11:02:02;;;;;;;8.80;4.40;;;22.60;1.00;;;;;;6010546;23;20990;-68
2023/05/30 11:04:32;;;;;;;10.73;4.00;;;22.80;1.00;;;;;;6011156;23;20418;-68
2023/05/30 11:07:02;;;;;;;10.10;4.50;;;23.50;1.00;;;;;;6009661;23;20418;-68
2023/05/30 11:09:29;;;;;;;9.70;4.30;;;23.60;1.00;;;;;;6010872;23;20521;-65
2023/05/30 11:11:57;;;;;;;13.53;4.10;;;23.90;1.00;;;;;;6010756;23;20503;-65
2023/05/30 11:14:30;;;;;;;14.50;4.50;;;24.10;1.00;;;;;;6011402;23;20509;-65
2023/05/30 11:17:00;;;;;;;16.17;4.50;;;24.50;1.00;;;;;;6011561;23;20403;-65
2023/05/30 11:19:28;;;;;;;9.27;3.20;;;23.40;1.00;;;;;;6011187;23;20415;-65
2023/05/30 11:22:02;;;;;;;14.10;3.80;;;23.40;1.00;;;;;;6010691;23;20433;-66
2023/05/30 11:24:31;;;;;;;13.23;4.37;;;24.00;1.00;;;;;;6011252;23;20736;-67
2023/05/30 11:26:59;;;;;;;10.50;4.70;;;24.00;1.00;;;;;;6010942;23;20426;-65
2023/05/30 11:29:32;;;;;;;13.90;4.43;;;23.70;1.00;;;;;;6010896;23;20741;-65
2023/05/30 11:32:00;;;;;;;10.20;4.13;;;24.10;1.00;;;;;;6010172;23;20433;-65
2023/05/30 11:34:27;;;;;;;11.57;4.33;;;23.80;1.00;;;;;;6010841;23;20422;-65
2023/05/30 11:36:53;;;;;;;11.67;4.97;;;24.00;1.00;;;;;;6010789;23;20473;-64
2023/05/30 11:39:21;;;;;;;9.13;4.10;;;23.20;1.00;;;;;;6010826;23;20419;-65
2023/05/30 11:41:48;;;;;;;11.60;4.60;;;23.00;1.00;;;;;;6010590;23;20429;-65
2023/05/30 11:44:15;;;;;;;8.33;4.00;;;22.60;1.00;;;;;;6011060;23;20721;-65
2023/05/30 11:46:43;;;;;;;11.67;3.93;;;22.70;1.00;;;;;;6010986;23;20418;-65
2023/05/30 11:49:10;;;;;;;11.60;4.13;;;23.10;1.00;;;;;;6009465;23;20748;-65
2023/05/30 11:51:39;;;;;;;9.33;4.60;;;23.30;1.00;;;;;;6010452;23;20400;-65
2023/05/30 11:54:08;;;;;;;8.73;3.30;;;22.60;1.00;;;;;;6010601;23;20394;-65
2023/05/30 11:56:37;;;;;;;6.33;3.13;;;23.30;1.00;;;;;;6010740;23;20784;-65
2023/05/30 11:59:04;;;;;;;11.30;4.03;;;22.90;1.00;;;;;;6010671;23;20430;-65
2023/05/30 12:01:31;;;;;;;13.83;3.87;;;23.70;1.00;;;;;;6011042;23;20510;-66
2023/05/30 12:04:00;;;;;;;9.40;3.90;;;23.20;1.00;;;;;;6010918;23;20896;-65
2023/05/30 12:06:26;;;;;;;9.60;3.60;;;23.90;1.00;;;;;;6010895;23;20422;-65
2023/05/30 12:08:53;;;;;;;8.10;3.50;;;23.60;1.00;;;;;;6011045;23;20521;-65
2023/05/30 12:11:21;;;;;;;13.20;4.27;;;23.40;1.00;;;;;;6010851;23;20508;-65
2023/05/30 12:13:48;;;;;;;8.53;4.30;;;24.70;1.00;;;;;;6011194;23;20510;-65
2023/05/30 12:16:14;;;;;;;10.90;4.97;;;25.10;1.00;;;;;;6010728;23;20429;-65
2023/05/30 12:18:41;;;;;;;8.83;3.13;;;25.00;1.00;;;;;;6011050;23;20744;-65
2023/05/30 12:21:12;;;;;;;12.90;4.10;;;25.90;1.00;;;;;;6011181;23;20414;-65
2023/05/30 12:23:42;;;;;;;12.17;4.40;;;25.40;1.00;;;;;;6010932;23;20403;-65
2023/05/30 12:26:16;;;;;;;7.67;3.47;;;25.70;1.00;;;;;;6010687;23;20407;-65
2023/05/30 12:28:45;;;;;;;9.10;3.73;;;25.60;1.00;;;;;;6010576;23;20466;-65
2023/05/30 12:31:21;;;;;;;9.93;3.20;;;24.30;1.00;;;;;;6010386;23;20442;-66
2023/05/30 12:33:48;;;;;;;9.43;3.93;;;24.40;1.00;;;;;;6010845;23;20717;-65
2023/05/30 12:36:16;;;;;;;8.60;3.43;;;24.30;1.00;;;;;;6010999;23;20892;-65
2023/05/30 12:38:43;;;;;;;7.73;4.20;;;24.40;1.00;;;;;;6010703;23;20720;-65
2023/05/30 12:41:10;;;;;;;10.37;4.13;;;24.50;1.00;;;;;;6010522;23;20422;-65
2023/05/30 12:43:38;;;;;;;12.00;3.50;;;24.30;1.00;;;;;;6010754;23;20418;-65
2023/05/30 12:46:09;;;;;;;12.33;4.33;;;24.90;1.00;;;;;;6010819;23;20425;-65
2023/05/30 12:48:36;;;;;;;9.40;4.67;;;25.40;1.00;;;;;;6010935;23;20377;-65
2023/05/30 12:51:03;;;;;;;9.00;4.20;;;26.00;1.00;;;;;;6010667;23;20443;-65